Time;durP1;ratioP1;P1;durP2;ratioP2;P2;SDS_P1;SDS_P2;PMS_P1;PMS_P2;Temp;Humidity;BMP_temperature;BMP_pressure;BME280_temperature;BME280_humidity;BME280_pressure;Samples;Min_cycle;Max_cycle;Signal;HPM_P1;HPM_P2
2022/11/27 00:05:00;;;;;;;6.25;3.42;;;;;;;;;;10267060;28;20122;-79
2022/11/27 00:10:04;;;;;;;6.78;3.20;;;;;;;;;;10262768;28;20050;-81
2022/11/27 00:15:09;;;;;;;4.90;2.65;;;;;;;;;;10257296;28;20054;-81
2022/11/27 00:20:15;;;;;;;11.75;4.63;;;;;;;;;;10255133;28;20411;-81
2022/11/27 00:25:19;;;;;;;5.85;2.60;;;;;;;;;;10261470;28;20062;-81
2022/11/27 00:30:23;;;;;;;6.43;3.25;;;;;;;;;;10246103;28;20058;-81
2022/11/27 00:35:27;;;;;;;3.42;2.35;;;;;;;;;;10240516;28;20733;-81
2022/11/27 00:40:30;;;;;;;2.80;2.15;;;;;;;;;;10242049;28;20043;-81
2022/11/27 00:45:35;;;;;;;3.47;2.17;;;;;;;;;;10255152;28;20237;-81
2022/11/27 00:50:38;;;;;;;3.67;2.35;;;;;;;;;;10257708;28;20054;-82
2022/11/27 00:55:42;;;;;;;4.47;2.40;;;;;;;;;;10217365;28;20043;-82
2022/11/27 01:00:47;;;;;;;5.22;2.60;;;;;;;;;;10249140;28;20057;-81
2022/11/27 01:05:50;;;;;;;3.65;2.40;;;;;;;;;;10249017;28;20188;-82
2022/11/27 01:10:55;;;;;;;4.38;2.55;;;;;;;;;;10244582;28;20047;-82
2022/11/27 01:16:01;;;;;;;3.88;2.60;;;;;;;;;;10249377;28;20428;-82
2022/11/27 01:21:05;;;;;;;2.77;2.40;;;;;;;;;;10236899;28;20050;-82
2022/11/27 01:26:10;;;;;;;2.53;2.30;;;;;;;;;;10221367;28;20055;-81
2022/11/27 01:31:16;;;;;;;4.22;2.35;;;;;;;;;;10221189;28;20059;-81
2022/11/27 01:36:20;;;;;;;;;;;;;;;;;;10226953;28;20078;-82
2022/11/27 01:41:26;;;;;;;4.10;2.50;;;;;;;;;;10224312;28;19929;-81
2022/11/27 01:46:35;;;;;;;4.90;2.60;;;;;;;;;;10239665;28;20598;-81
2022/11/27 01:51:42;;;;;;;3.63;2.08;;;;;;;;;;10232358;28;20069;-81
2022/11/27 01:56:48;;;;;;;7.82;4.22;;;;;;;;;;10221105;28;20043;-81
2022/11/27 02:01:53;;;;;;;6.60;3.55;;;;;;;;;;10231634;28;20055;-81
2022/11/27 02:06:59;;;;;;;5.03;2.88;;;;;;;;;;10236776;28;20515;-81
2022/11/27 02:12:10;;;;;;;5.05;3.03;;;;;;;;;;10211356;28;20055;-82
2022/11/27 02:17:21;;;;;;;6.93;3.03;;;;;;;;;;10232481;28;20084;-82
2022/11/27 02:22:36;;;;;;;3.65;2.35;;;;;;;;;;10252669;28;20161;-82
2022/11/27 02:27:56;;;;;;;6.70;3.33;;;;;;;;;;10235455;28;20043;-82
2022/11/27 02:33:03;;;;;;;4.97;2.90;;;;;;;;;;10222012;28;20050;-81
2022/11/27 02:38:10;;;;;;;6.85;4.22;;;;;;;;;;10244964;28;20047;-81
2022/11/27 02:43:18;;;;;;;4.25;3.03;;;;;;;;;;10225402;28;20515;-82
2022/11/27 02:48:27;;;;;;;5.00;2.55;;;;;;;;;;10248021;28;20039;-82
2022/11/27 02:53:36;;;;;;;4.38;2.30;;;;;;;;;;10247861;28;20051;-81
2022/11/27 02:58:41;;;;;;;3.40;2.33;;;;;;;;;;10218346;28;20260;-82
2022/11/27 03:03:49;;;;;;;5.07;2.58;;;;;;;;;;10235024;28;20447;-81
2022/11/27 03:08:57;;;;;;;4.57;2.33;;;;;;;;;;10235018;28;20396;-81
2022/11/27 03:14:05;;;;;;;6.00;2.95;;;;;;;;;;10235618;28;20515;-81
2022/11/27 03:19:15;;;;;;;9.63;4.22;;;;;;;;;;10253212;28;20042;-81
2022/11/27 03:24:19;;;;;;;6.10;2.67;;;;;;;;;;10222987;28;20051;-82
2022/11/27 03:29:27;;;;;;;3.55;2.10;;;;;;;;;;10254741;28;20054;-81
2022/11/27 03:34:32;;;;;;;5.75;2.42;;;;;;;;;;10235292;28;20046;-82
2022/11/27 03:39:35;;;;;;;3.88;2.30;;;;;;;;;;10235842;28;20499;-81
2022/11/27 03:44:46;;;;;;;6.57;2.90;;;;;;;;;;10240738;28;20731;-81
2022/11/27 03:50:03;;;;;;;7.30;2.60;;;;;;;;;;10210753;28;20051;-81
2022/11/27 03:55:12;;;;;;;5.28;3.08;;;;;;;;;;10235227;28;20054;-81
2022/11/27 04:00:16;;;;;;;5.60;2.50;;;;;;;;;;10239921;28;20054;-81
2022/11/27 04:05:21;;;;;;;2.47;1.52;;;;;;;;;;10216995;28;20047;-81
2022/11/27 04:10:24;;;;;;;4.72;2.50;;;;;;;;;;10217590;28;20050;-82
2022/11/27 04:15:28;;;;;;;5.50;2.75;;;;;;;;;;10231163;28;20133;-81
2022/11/27 04:20:32;;;;;;;9.80;3.15;;;;;;;;;;10224569;28;20516;-80
2022/11/27 04:25:36;;;;;;;5.22;3.78;;;;;;;;;;10221405;28;20047;-81
2022/11/27 04:30:39;;;;;;;5.60;2.67;;;;;;;;;;10241154;28;20038;-81
2022/11/27 04:35:44;;;;;;;5.38;2.83;;;;;;;;;;10239068;28;20046;-81
2022/11/27 04:40:47;;;;;;;2.72;1.95;;;;;;;;;;10222398;28;20138;-81
2022/11/27 04:45:51;;;;;;;5.97;2.95;;;;;;;;;;10220284;28;20130;-81
2022/11/27 04:50:56;;;;;;;5.90;3.45;;;;;;;;;;10234598;28;20058;-81
2022/11/27 04:55:59;;;;;;;4.53;3.10;;;;;;;;;;10229428;28;20047;-81
2022/11/27 05:01:02;;;;;;;8.60;4.13;;;;;;;;;;10254949;28;20138;-81
2022/11/27 05:06:07;;;;;;;4.70;2.90;;;;;;;;;;10240794;28;20047;-81
2022/11/27 05:11:13;;;;;;;3.97;2.35;;;;;;;;;;10248202;28;20053;-80
2022/11/27 05:16:16;;;;;;;4.10;2.60;;;;;;;;;;10248330;28;20051;-81
2022/11/27 05:21:21;;;;;;;5.10;2.72;;;;;;;;;;10255002;28;20481;-81
2022/11/27 05:26:24;;;;;;;4.97;3.05;;;;;;;;;;10253635;28;20436;-82
2022/11/27 05:31:28;;;;;;;6.05;3.47;;;;;;;;;;10247402;28;20070;-82
2022/11/27 05:36:35;;;;;;;3.92;2.97;;;;;;;;;;10240571;28;20047;-81
2022/11/27 05:41:40;;;;;;;5.20;3.13;;;;;;;;;;10226036;28;20054;-82
2022/11/27 05:46:44;;;;;;;5.88;3.53;;;;;;;;;;10238471;28;20533;-81
2022/11/27 05:51:48;;;;;;;7.80;4.38;;;;;;;;;;10227283;28;20419;-82
2022/11/27 05:56:53;;;;;;;10.02;4.57;;;;;;;;;;10226300;28;20105;-81
2022/11/27 06:01:56;;;;;;;7.43;4.00;;;;;;;;;;10227319;28;20055;-81
2022/11/27 06:07:01;;;;;;;7.72;3.47;;;;;;;;;;10236104;28;20438;-80
2022/11/27 06:12:05;;;;;;;6.60;3.55;;;;;;;;;;10224232;28;20193;-80
2022/11/27 06:17:08;;;;;;;5.20;3.03;;;;;;;;;;10232333;28;20101;-81
2022/11/27 06:22:13;;;;;;;4.90;3.28;;;;;;;;;;10215186;28;20039;-81
2022/11/27 06:27:16;;;;;;;4.35;2.65;;;;;;;;;;10218809;28;20058;-81
2022/11/27 06:32:20;;;;;;;4.72;3.10;;;;;;;;;;10234598;28;20539;-81
2022/11/27 06:37:25;;;;;;;7.07;2.70;;;;;;;;;;10267664;28;20063;-81
2022/11/27 06:42:29;;;;;;;4.22;2.80;;;;;;;;;;10213642;28;20106;-81
2022/11/27 06:47:33;;;;;;;4.82;2.88;;;;;;;;;;10228665;28;20299;-81
2022/11/27 06:52:37;;;;;;;3.67;2.35;;;;;;;;;;10229840;28;20050;-82
2022/11/27 06:57:42;;;;;;;;;;;;;;;;;;10221799;28;20058;-81
2022/11/27 07:02:45;;;;;;;6.93;2.67;;;;;;;;;;10237184;28;19976;-81
2022/11/27 07:07:50;;;;;;;6.20;3.33;;;;;;;;;;10234232;28;20061;-81
2022/11/27 07:12:53;;;;;;;4.85;2.97;;;;;;;;;;10219024;28;20901;-81
2022/11/27 07:17:58;;;;;;;7.20;3.63;;;;;;;;;;10235263;28;20053;-82
2022/11/27 07:23:02;;;;;;;5.40;3.08;;;;;;;;;;10213506;28;20047;-81
2022/11/27 07:28:06;;;;;;;4.85;2.58;;;;;;;;;;10210673;28;20474;-82
2022/11/27 07:33:09;;;;;;;4.10;2.45;;;;;;;;;;10241753;28;20046;-81
2022/11/27 07:38:14;;;;;;;8.18;2.63;;;;;;;;;;10247477;28;20120;-82
2022/11/27 07:43:17;;;;;;;3.83;2.20;;;;;;;;;;10225229;28;20047;-81
2022/11/27 07:48:21;;;;;;;5.82;2.83;;;;;;;;;;10236215;28;20059;-81
2022/11/27 07:53:25;;;;;;;10.07;3.08;;;;;;;;;;10235097;28;20047;-81
2022/11/27 07:58:29;;;;;;;3.35;1.95;;;;;;;;;;10228823;28;20500;-81
2022/11/27 08:03:33;;;;;;;4.47;2.20;;;;;;;;;;10250777;28;20043;-80
2022/11/27 08:08:37;;;;;;;4.30;2.47;;;;;;;;;;10242216;28;20043;-80
2022/11/27 08:13:41;;;;;;;3.28;2.10;;;;;;;;;;10211182;28;20075;-80
2022/11/27 08:18:44;;;;;;;3.35;2.00;;;;;;;;;;10225812;28;20135;-80
2022/11/27 08:23:49;;;;;;;3.80;2.28;;;;;;;;;;10231217;28;20062;-80
2022/11/27 08:28:53;;;;;;;3.75;2.08;;;;;;;;;;10247382;28;20046;-81
2022/11/27 08:33:56;;;;;;;3.00;1.85;;;;;;;;;;10245849;28;20130;-82
2022/11/27 08:39:01;;;;;;;3.10;1.90;;;;;;;;;;10248624;28;20059;-81
2022/11/27 08:44:04;;;;;;;3.83;1.90;;;;;;;;;;10257059;28;20055;-82
2022/11/27 08:49:11;;;;;;;3.03;1.85;;;;;;;;;;10238603;28;20050;-81
2022/11/27 08:54:16;;;;;;;2.15;1.73;;;;;;;;;;10239488;28;20431;-81
2022/11/27 08:59:19;;;;;;;3.25;1.80;;;;;;;;;;10225336;28;20043;-81
2022/11/27 09:04:23;;;;;;;3.08;1.80;;;;;;;;;;10240293;28;20074;-80
2022/11/27 09:09:28;;;;;;;5.68;2.92;;;;;;;;;;10250773;28;20082;-81
2022/11/27 09:14:31;;;;;;;5.72;2.85;;;;;;;;;;10235207;28;20065;-83
2022/11/27 09:19:34;;;;;;;3.67;2.83;;;;;;;;;;10218161;28;20050;-82
2022/11/27 09:24:39;;;;;;;2.85;2.33;;;;;;;;;;10243749;28;20039;-84
2022/11/27 09:29:42;;;;;;;3.85;2.45;;;;;;;;;;10248557;28;20435;-84
2022/11/27 09:34:46;;;;;;;2.53;1.80;;;;;;;;;;10232633;28;20142;-83
2022/11/27 09:39:51;;;;;;;2.47;1.80;;;;;;;;;;10248156;28;20200;-84
2022/11/27 09:44:57;;;;;;;7.57;3.20;;;;;;;;;;10247157;28;20047;-83
2022/11/27 09:50:03;;;;;;;3.85;2.03;;;;;;;;;;10251319;28;20042;-84
2022/11/27 09:55:14;;;;;;;2.83;1.52;;;;;;;;;;10260996;28;20155;-85
2022/11/27 10:00:19;;;;;;;4.32;2.38;;;;;;;;;;10234953;28;20047;-85
2022/11/27 10:05:24;;;;;;;2.67;1.47;;;;;;;;;;10249276;28;20520;-85
2022/11/27 10:10:38;;;;;;;2.05;1.63;;;;;;;;;;10249859;28;20059;-85
2022/11/27 10:15:47;;;;;;;3.55;2.10;;;;;;;;;;10241136;28;20074;-85
2022/11/27 10:20:55;;;;;;;4.90;2.70;;;;;;;;;;10239900;28;20071;-85
2022/11/27 10:26:03;;;;;;;2.08;1.60;;;;;;;;;;10246589;28;20057;-85
2022/11/27 10:31:14;;;;;;;2.70;1.77;;;;;;;;;;10248731;28;20047;-84
2022/11/27 10:36:21;;;;;;;2.60;1.70;;;;;;;;;;10218096;28;20144;-84
2022/11/27 10:41:30;;;;;;;2.67;1.35;;;;;;;;;;10224142;28;20051;-84
2022/11/27 10:46:52;;;;;;;5.00;3.22;;;;;;;;;;10222551;28;20043;-84
2022/11/27 10:51:55;;;;;;;5.85;3.00;;;;;;;;;;10203890;28;20419;-85
2022/11/27 10:57:25;;;;;;;10.02;5.30;;;;;;;;;;10232261;28;20047;-84
2022/11/27 11:02:31;;;;;;;8.15;4.53;;;;;;;;;;10188707;28;20130;-84
2022/11/27 11:07:35;;;;;;;5.68;4.05;;;;;;;;;;10247788;28;20059;-84
2022/11/27 11:12:39;;;;;;;6.72;3.47;;;;;;;;;;10225804;28;20672;-84
2022/11/27 11:17:43;;;;;;;4.03;2.85;;;;;;;;;;10245947;28;20090;-84
2022/11/27 11:22:47;;;;;;;7.22;4.03;;;;;;;;;;10232110;28;20388;-85
2022/11/27 11:27:53;;;;;;;8.73;3.60;;;;;;;;;;10210946;28;20114;-85
2022/11/27 11:33:01;;;;;;;5.82;3.35;;;;;;;;;;10209603;28;20073;-83
2022/11/27 11:38:07;;;;;;;6.95;3.75;;;;;;;;;;10241099;28;20051;-83
2022/11/27 11:43:24;;;;;;;;;;;;;;;;;;10215642;28;20458;-83
2022/11/27 11:48:28;;;;;;;3.55;2.60;;;;;;;;;;10227611;28;19926;-81
2022/11/27 11:53:36;;;;;;;2.90;1.90;;;;;;;;;;10246871;28;20054;-83
2022/11/27 11:58:53;;;;;;;3.45;2.30;;;;;;;;;;10210884;28;20508;-84
2022/11/27 12:04:07;;;;;;;3.20;2.08;;;;;;;;;;10573207;23;20501;-83
2022/11/27 12:09:24;;;;;;;3.97;2.45;;;;;;;;;;10281105;28;20502;-83
2022/11/27 12:14:45;;;;;;;2.75;2.10;;;;;;;;;;10321096;28;20853;-83
2022/11/27 12:20:13;;;;;;;2.50;1.52;;;;;;;;;;10344666;28;20435;-83
2022/11/27 12:25:28;;;;;;;3.28;2.10;;;;;;;;;;10339757;28;20045;-83
2022/11/27 12:30:44;;;;;;;4.97;2.23;;;;;;;;;;10320215;28;20061;-83
2022/11/27 12:35:54;;;;;;;4.03;2.83;;;;;;;;;;10345369;28;20050;-84
2022/11/27 12:41:13;;;;;;;2.85;2.20;;;;;;;;;;10338434;28;20549;-83
2022/11/27 12:46:22;;;;;;;3.83;2.60;;;;;;;;;;10322321;28;20138;-83
2022/11/27 12:51:29;;;;;;;2.60;1.98;;;;;;;;;;10320061;28;20042;-83
2022/11/27 12:56:37;;;;;;;3.05;2.08;;;;;;;;;;10322056;28;20129;-83
2022/11/27 13:01:46;;;;;;;3.00;2.08;;;;;;;;;;10338756;28;20054;-82
2022/11/27 13:06:57;;;;;;;4.40;3.03;;;;;;;;;;10350195;28;20533;-83
2022/11/27 13:12:02;;;;;;;3.63;2.40;;;;;;;;;;10320514;28;20504;-82
2022/11/27 13:17:14;;;;;;;4.28;2.42;;;;;;;;;;10350263;28;20042;-83
2022/11/27 13:22:31;;;;;;;2.50;1.90;;;;;;;;;;10339619;28;20165;-84
2022/11/27 13:27:37;;;;;;;3.90;2.20;;;;;;;;;;10335240;28;20116;-84
2022/11/27 13:32:47;;;;;;;4.20;2.17;;;;;;;;;;10336505;28;20076;-83
2022/11/27 13:37:58;;;;;;;4.43;2.20;;;;;;;;;;10316665;28;20050;-83
2022/11/27 13:43:05;;;;;;;4.30;2.20;;;;;;;;;;10341985;28;20394;-83
2022/11/27 13:48:26;;;;;;;4.43;2.42;;;;;;;;;;10346614;28;20080;-83
2022/11/27 13:53:35;;;;;;;4.13;2.13;;;;;;;;;;10359468;28;20042;-83
2022/11/27 13:58:40;;;;;;;5.10;2.70;;;;;;;;;;10340449;28;20061;-84
2022/11/27 14:03:45;;;;;;;4.45;3.03;;;;;;;;;;10336508;28;20065;-83
2022/11/27 14:08:57;;;;;;;5.95;3.97;;;;;;;;;;10332821;28;20521;-84
2022/11/27 14:14:03;;;;;;;9.25;5.00;;;;;;;;;;10342573;28;20080;-83
2022/11/27 14:19:24;;;;;;;13.37;7.33;;;;;;;;;;10344639;28;20057;-84
2022/11/27 14:24:42;;;;;;;9.02;5.32;;;;;;;;;;10342804;28;20096;-84
2022/11/27 14:29:46;;;;;;;6.20;4.30;;;;;;;;;;10338472;28;20453;-83
2022/11/27 14:34:51;;;;;;;5.57;3.30;;;;;;;;;;10325431;28;20224;-83
2022/11/27 14:39:55;;;;;;;4.70;2.78;;;;;;;;;;10336532;28;20049;-83
2022/11/27 14:45:02;;;;;;;3.53;2.13;;;;;;;;;;10322999;28;20046;-84
2022/11/27 14:50:13;;;;;;;3.88;2.10;;;;;;;;;;10347582;28;20046;-82
2022/11/27 14:55:18;;;;;;;3.33;2.28;;;;;;;;;;10343111;28;20049;-82
2022/11/27 15:00:25;;;;;;;2.95;2.20;;;;;;;;;;10326384;28;20116;-82
2022/11/27 15:05:38;;;;;;;2.78;2.03;;;;;;;;;;10319380;28;20054;-83
2022/11/27 15:10:42;;;;;;;3.33;2.13;;;;;;;;;;10324639;28;20129;-82
2022/11/27 15:15:54;;;;;;;3.15;1.90;;;;;;;;;;10319212;28;20422;-82
2022/11/27 15:21:01;;;;;;;3.25;1.70;;;;;;;;;;10326278;28;20505;-83
2022/11/27 15:26:09;;;;;;;2.47;2.17;;;;;;;;;;10327343;28;20121;-83
2022/11/27 15:31:25;;;;;;;3.38;2.05;;;;;;;;;;10335663;28;20042;-82
2022/11/27 15:36:40;;;;;;;8.45;4.57;;;;;;;;;;10319720;28;20579;-82
2022/11/27 15:41:51;;;;;;;5.68;3.33;;;;;;;;;;10332077;28;20558;-83
2022/11/27 15:46:57;;;;;;;5.25;3.13;;;;;;;;;;10316569;28;20050;-82
2022/11/27 15:52:01;;;;;;;4.10;2.50;;;;;;;;;;10315062;28;20137;-83
2022/11/27 15:57:05;;;;;;;3.65;2.42;;;;;;;;;;10312136;28;20038;-82
2022/11/27 16:02:09;;;;;;;3.10;2.08;;;;;;;;;;10329249;28;20050;-82
2022/11/27 16:07:18;;;;;;;4.43;2.95;;;;;;;;;;10299422;28;20120;-83
2022/11/27 16:12:22;;;;;;;4.32;3.05;;;;;;;;;;10341155;28;20072;-82
2022/11/27 16:17:25;;;;;;;4.88;2.60;;;;;;;;;;10319465;28;20068;-81
2022/11/27 16:22:30;;;;;;;3.95;2.45;;;;;;;;;;10330686;28;20061;-82
2022/11/27 16:27:34;;;;;;;3.63;2.53;;;;;;;;;;10310985;28;20557;-82
2022/11/27 16:32:38;;;;;;;5.55;3.13;;;;;;;;;;10323295;28;20488;-82
2022/11/27 16:37:44;;;;;;;4.18;2.88;;;;;;;;;;10315262;28;20136;-82
2022/11/27 16:42:48;;;;;;;3.67;2.40;;;;;;;;;;10326433;28;20072;-83
2022/11/27 16:47:53;;;;;;;2.88;1.98;;;;;;;;;;10313502;28;20045;-83
2022/11/27 16:52:59;;;;;;;3.10;2.10;;;;;;;;;;10325438;28;20050;-83
2022/11/27 16:58:03;;;;;;;4.03;2.10;;;;;;;;;;10336276;28;20042;-83
2022/11/27 17:03:07;;;;;;;2.95;2.10;;;;;;;;;;10331637;28;20046;-83
2022/11/27 17:08:12;;;;;;;3.28;1.80;;;;;;;;;;10316250;28;20160;-84
2022/11/27 17:13:15;;;;;;;3.03;1.67;;;;;;;;;;10328104;28;20148;-83
2022/11/27 17:18:19;;;;;;;2.95;1.77;;;;;;;;;;10332726;28;20068;-83
2022/11/27 17:23:24;;;;;;;3.85;2.00;;;;;;;;;;10324808;28;20108;-83
2022/11/27 17:28:27;;;;;;;3.00;1.92;;;;;;;;;;10317528;28;20049;-83
2022/11/27 17:33:31;;;;;;;2.13;1.83;;;;;;;;;;10342823;28;20081;-83
2022/11/27 17:38:35;;;;;;;5.75;2.28;;;;;;;;;;10341040;28;20049;-83
2022/11/27 17:43:40;;;;;;;5.75;2.58;;;;;;;;;;10345270;28;20128;-83
2022/11/27 17:48:44;;;;;;;3.72;2.58;;;;;;;;;;10333155;28;20487;-83
2022/11/27 17:53:49;;;;;;;3.25;2.28;;;;;;;;;;10333436;28;20046;-82
2022/11/27 17:58:53;;;;;;;4.37;2.73;;;;;;;;;;10317003;28;20421;-83
2022/11/27 18:03:59;;;;;;;4.20;2.50;;;;;;;;;;10328292;28;20285;-82
2022/11/27 18:09:06;;;;;;;4.18;2.20;;;;;;;;;;10319147;28;20093;-83
2022/11/27 18:14:12;;;;;;;3.63;2.10;;;;;;;;;;10323631;28;20160;-83
2022/11/27 18:19:16;;;;;;;3.17;2.20;;;;;;;;;;10316426;28;20050;-83
2022/11/27 18:24:21;;;;;;;3.72;2.60;;;;;;;;;;10328749;28;20585;-84
2022/11/27 18:29:26;;;;;;;4.75;3.28;;;;;;;;;;10339064;28;20092;-84
2022/11/27 18:34:29;;;;;;;5.45;2.78;;;;;;;;;;10317346;28;20054;-84
2022/11/27 18:39:35;;;;;;;4.68;2.40;;;;;;;;;;10324683;28;20125;-83
2022/11/27 18:44:39;;;;;;;6.00;2.80;;;;;;;;;;10325179;28;20050;-83
2022/11/27 18:49:48;;;;;;;4.05;2.53;;;;;;;;;;10325340;28;20056;-84
2022/11/27 18:54:52;;;;;;;3.42;1.50;;;;;;;;;;10336719;28;20561;-82
2022/11/27 18:59:56;;;;;;;3.95;2.08;;;;;;;;;;10323728;28;20050;-82
2022/11/27 19:04:59;;;;;;;1.55;1.13;;;;;;;;;;10318775;28;22057;-82
2022/11/27 19:10:05;;;;;;;1.77;1.27;;;;;;;;;;10315827;28;20046;-83
2022/11/27 19:15:09;;;;;;;2.17;1.33;;;;;;;;;;10320808;28;20049;-84
2022/11/27 19:20:13;;;;;;;2.50;1.30;;;;;;;;;;10336616;28;20096;-84
2022/11/27 19:25:19;;;;;;;2.83;1.65;;;;;;;;;;10318381;28;20529;-84
2022/11/27 19:30:23;;;;;;;2.57;1.73;;;;;;;;;;10349845;28;20065;-83
2022/11/27 19:35:26;;;;;;;3.50;2.28;;;;;;;;;;10319143;28;20457;-84
2022/11/27 19:40:37;;;;;;;3.42;1.88;;;;;;;;;;10342780;28;20052;-84
2022/11/27 19:45:40;;;;;;;2.05;1.58;;;;;;;;;;10318690;28;20056;-83
2022/11/27 19:50:45;;;;;;;2.88;1.42;;;;;;;;;;10335528;28;20054;-83
2022/11/27 19:55:54;;;;;;;2.40;1.90;;;;;;;;;;10314337;28;20042;-80
2022/11/27 20:01:05;;;;;;;3.15;1.67;;;;;;;;;;10328420;28;20391;-81
2022/11/27 20:06:11;;;;;;;5.10;2.00;;;;;;;;;;10322684;28;20064;-81
2022/11/27 20:11:19;;;;;;;4.07;2.30;;;;;;;;;;10330992;28;20075;-81
2022/11/27 20:16:23;;;;;;;4.35;2.80;;;;;;;;;;10329019;28;20344;-81
2022/11/27 20:21:26;;;;;;;5.47;3.38;;;;;;;;;;10334673;28;20045;-81
2022/11/27 20:26:33;;;;;;;4.75;3.00;;;;;;;;;;10350510;28;20110;-81
2022/11/27 20:31:39;;;;;;;6.70;3.70;;;;;;;;;;10341756;28;20073;-81
2022/11/27 20:36:43;;;;;;;6.90;4.07;;;;;;;;;;10333040;28;20112;-81
2022/11/27 20:41:48;;;;;;;5.32;3.47;;;;;;;;;;10335249;28;20073;-83
2022/11/27 20:46:52;;;;;;;4.80;3.27;;;;;;;;;;10319816;28;20318;-81
2022/11/27 20:51:58;;;;;;;4.70;3.53;;;;;;;;;;10325535;28;20042;-82
2022/11/27 20:57:03;;;;;;;4.43;3.10;;;;;;;;;;10356632;28;20045;-81
2022/11/27 21:02:10;;;;;;;5.97;3.17;;;;;;;;;;10354734;28;20116;-82
2022/11/27 21:07:14;;;;;;;5.35;2.85;;;;;;;;;;10338229;28;20042;-82
2022/11/27 21:12:18;;;;;;;3.65;2.95;;;;;;;;;;10334337;28;20534;-82
2022/11/27 21:17:22;;;;;;;3.67;2.90;;;;;;;;;;10340921;28;20077;-82
2022/11/27 21:22:26;;;;;;;5.53;3.22;;;;;;;;;;10337060;28;20521;-82
2022/11/27 21:27:30;;;;;;;3.60;2.88;;;;;;;;;;10351882;28;20096;-82
2022/11/27 21:32:34;;;;;;;4.80;3.60;;;;;;;;;;10357302;28;20068;-82
2022/11/27 21:37:38;;;;;;;3.85;2.65;;;;;;;;;;10339765;28;20066;-81
2022/11/27 21:42:43;;;;;;;3.38;2.45;;;;;;;;;;10342880;28;20124;-81
2022/11/27 21:47:47;;;;;;;2.83;2.30;;;;;;;;;;10342110;28;20061;-81
2022/11/27 21:52:52;;;;;;;3.65;2.28;;;;;;;;;;10339825;28;20108;-80
2022/11/27 21:57:58;;;;;;;3.03;2.10;;;;;;;;;;10332514;28;20065;-81
2022/11/27 22:03:01;;;;;;;4.28;2.78;;;;;;;;;;10335488;28;20281;-82
2022/11/27 22:08:05;;;;;;;3.20;2.35;;;;;;;;;;10359497;28;20050;-82
2022/11/27 22:13:10;;;;;;;3.22;2.38;;;;;;;;;;10333367;28;20038;-82
2022/11/27 22:18:13;;;;;;;4.35;2.50;;;;;;;;;;10333258;28;20049;-81
2022/11/27 22:23:17;;;;;;;3.85;2.88;;;;;;;;;;10333105;28;20046;-81
2022/11/27 22:28:22;;;;;;;4.28;2.67;;;;;;;;;;10333918;28;20129;-82
2022/11/27 22:33:25;;;;;;;4.47;2.80;;;;;;;;;;10331272;28;20038;-82
2022/11/27 22:38:29;;;;;;;4.88;3.28;;;;;;;;;;10348921;28;20049;-83
2022/11/27 22:43:35;;;;;;;4.65;3.30;;;;;;;;;;10320511;28;20038;-82
2022/11/27 22:48:39;;;;;;;4.30;2.80;;;;;;;;;;10341093;28;20097;-82
2022/11/27 22:53:43;;;;;;;3.28;2.30;;;;;;;;;;10316611;28;20513;-82
2022/11/27 22:58:49;;;;;;;3.22;1.83;;;;;;;;;;10321493;28;20046;-82
2022/11/27 23:03:55;;;;;;;3.05;1.95;;;;;;;;;;10327612;28;20582;-82
2022/11/27 23:08:58;;;;;;;3.35;1.90;;;;;;;;;;10342144;28;20046;-82
2022/11/27 23:14:03;;;;;;;2.30;1.60;;;;;;;;;;10337586;28;20037;-82
2022/11/27 23:19:07;;;;;;;2.33;1.88;;;;;;;;;;10348148;28;20060;-82
2022/11/27 23:24:14;;;;;;;2.45;1.88;;;;;;;;;;10323679;28;20052;-83
2022/11/27 23:29:18;;;;;;;3.65;2.22;;;;;;;;;;10328192;28;20045;-82
2022/11/27 23:34:22;;;;;;;4.05;2.55;;;;;;;;;;10327642;28;20045;-82
2022/11/27 23:39:25;;;;;;;2.53;2.17;;;;;;;;;;10326912;28;20052;-82
2022/11/27 23:44:30;;;;;;;3.70;2.67;;;;;;;;;;10345294;28;20065;-81
2022/11/27 23:49:33;;;;;;;2.17;1.98;;;;;;;;;;10319897;28;20052;-81
2022/11/27 23:54:37;;;;;;;2.83;1.83;;;;;;;;;;10323971;28;20042;-82
2022/11/27 23:59:41;;;;;;;3.45;2.30;;;;;;;;;;10326604;28;20050;-81
